Sonic Adventure (DX): Time Rankings

Records: Times | Rings | Scores | Races | Bosses | Freestyle
Leaders: Times | Rings | Scores | Races | Bosses | Freestyle | Overall
Rank Player Percent Points Date
1 Gamepro011 99.4% 31 02-19-18
2 Sonicspeedruner 98.4% 89 02-19-18
3 Dashjump 94.6% 303 02-19-18
4 Jawzun 94.6% 305 02-19-18
5 DarkPolarNight 93.7% 357 02-19-18
6 drminus 91.5% 481 02-19-18
7 F-Man 91.4% 487 02-19-18
8 THC98 91.0% 509 02-19-18
9 ike6252 89.0% 621 02-19-18
10 Avento128bits 88.7% 643 02-19-18
11 francisco 88.4% 658 02-19-18
12 ethmar 87.9% 687 02-19-18
13 DarkspinesSonic 87.9% 689 02-19-18
14 Marth 87.8% 693 02-19-18
15 frankoredstrato 86.4% 772 02-19-18
16 TheRealShadnic 84.8% 865 02-19-18
17 chainchumper 84.6% 874 02-19-18
18 Paragod 83.7% 927 02-19-18
19 HyperSonic7701 83.5% 938 02-19-18
20 Calfd 83.1% 958 02-19-18
21 xXMegaManXx 80.5% 1110 02-19-18
22 InferSaime 80.3% 1118 02-19-18
23 Coolfansonic 80.2% 1127 02-19-18
24 Stefan 78.9% 1198 02-19-18
25 PfoSonic 78.5% 1223 02-19-18
26 bertin 76.7% 1323 02-19-18
27 yoshifan 76.2% 1354 02-19-18
28 Dave Cramer 74.6% 1443 02-19-18
29 RPGnutter 74.3% 1460 02-19-18
30 sonicam 72.7% 1551 02-19-18
31 Cybrax 72.4% 1567 02-19-18
32 Ring Rush 69.9% 1710 02-19-18
33 Nim 69.2% 1752 02-19-18
34 mike89 69.1% 1755 02-19-18
35 NintenDan 68.8% 1774 02-19-18
36 a_moustache 67.5% 1848 02-19-18
37 chaos shadow 65.6% 1955 02-19-18
38 SkyLights 65.3% 1972 02-19-18
39 Combo 64.0% 2050 02-19-18
40 SADXTryHard 61.7% 2178 02-19-18
41 P1 Pause 61.1% 2214 02-19-18
42 Dekuboy 59.4% 2312 02-19-18
43 Groudon199 59.2% 2321 02-19-18
44 Game_Complete 58.5% 2361 02-19-18
45 Shadow Jacky 58.5% 2363 02-19-18
46 AxlThunder 58.4% 2367 02-19-18
47 VMU Player Banned 57.5% 2419 02-19-18
48 Thorn 57.2% 2436 02-19-18
49 SB737 56.1% 2499 02-19-18
49 The Knuckles Chao 56.1% 2499 02-19-18
51 SadisticMystic 55.7% 2522 02-19-18
52 Chao_Fan 55.6% 2524 02-19-18
53 Parax 55.3% 2545 02-19-18
54 Mastakirby 55.2% 2550 02-19-18
55 KinkyCadence 54.5% 2587 02-19-18
56 LittleBigness 54.5% 2589 02-19-18
57 OmegaDJ 54.4% 2592 02-19-18
58 mauserman 54.4% 2595 02-19-18
59 Psyknux 54.2% 2607 02-19-18
60 Auriman1 53.9% 2621 02-19-18
61 magnum12 53.7% 2633 02-19-18
62 Niczur 53.5% 2646 02-19-18
63 Turbos 53.4% 2651 02-19-18
64 GerbilSoft 52.9% 2681 02-19-18
65 GreatStar 52.5% 2700 02-19-18
66 Webber3000 52.2% 2721 02-19-18
67 Hipertails12 51.1% 2780 02-19-18
68 N 51.0% 2787 02-19-18
69 James_Bertolli 49.1% 2899 02-19-18
70 Cream147 48.6% 2924 02-19-18
71 welldooder64 48.0% 2957 02-19-18
72 Skylace 47.9% 2962 02-19-18
73 Quartz 47.5% 2986 02-19-18
74 Omega Rafael Santos 47.5% 2990 02-19-18
75 Psymar 47.3% 2997 02-19-18
76 Diamond 47.1% 3009 02-19-18
77 SonicWinDX 46.5% 3043 02-19-18
78 teamblackarms 46.2% 3059 02-19-18
79 Andrea Ritsu 45.7% 3092 02-19-18
80 buddychaos0415 45.2% 3118 02-19-18
81 SilverSonic 44.8% 3143 02-19-18
82 SilvertheAlmighty 44.1% 3179 02-19-18
83 itsPersonnal 43.7% 3206 02-19-18
84 WeegeeZV 43.6% 3209 02-19-18
85 metanightmare22 43.5% 3217 02-19-18
86 lordmetalsonic 41.3% 3341 02-19-18
87 Arch 40.8% 3372 02-19-18
88 Termon 39.9% 3421 02-19-18
89 videogamemaster777 39.8% 3424 02-19-18
90 supersonicfan 39.5% 3442 02-19-18
91 Drakodan 38.9% 3476 02-19-18
92 LilZero 38.7% 3488 02-19-18
93 Kanimayo_Jp 38.7% 3490 02-19-18
94 paulie9990 38.6% 3497 02-19-18
95 supersonic465 38.5% 3502 02-19-18
96 FuzZerd 38.4% 3508 02-19-18
97 eggFL 37.8% 3540 02-19-18
98 BigAL49 37.5% 3555 02-19-18
99 JamminX42 37.3% 3567 02-19-18
100 Don 36.9% 3589 02-19-18
101 danieldude 36.9% 3591 02-19-18
102 Siavash Tazari 36.3% 3628 02-19-18
103 Fr3nZy 35.8% 3656 02-19-18
104 f0rever_zer0 35.3% 3684 02-19-18
105 Cod4Scopes 35.0% 3702 02-19-18
106 Cyan Ryan 34.6% 3724 02-19-18
107 LinksDarkArrows 34.2% 3744 02-19-18
108 Therio 34.0% 3759 02-19-18
109 Austinf 33.6% 3782 02-19-18
110 elecmouse101 33.3% 3795 02-19-18
111 Staf 33.1% 3807 02-19-18
112 MiStEr_ShAoLiN 32.8% 3826 02-19-18
113 Twilisailor 32.6% 3838 02-19-18
114 ModifiedMonkee 32.3% 3854 02-19-18
115 videogamer1014 32.2% 3857 02-19-18
116 BrokenArthritis 32.1% 3865 02-19-18
117 Xia 31.7% 3889 02-19-18
118 AC-Tygo 31.4% 3904 02-19-18
119 welshmoose05 31.3% 3913 02-19-18
120 OddCook 30.6% 3950 02-19-18
121 The Great Lord Mick 30.2% 3971 02-19-18
122 Aitamen 29.8% 3997 02-19-18
123 Mcshuggets 29.7% 3999 02-19-18
124 Maxinfamily 29.7% 4000 02-19-18
125 Matt_TY 29.4% 4018 02-19-18
126 dabestgamer 29.1% 4034 02-19-18
127 joecoolgames 29.0% 4040 02-19-18
128 SuperBlitzCraig 28.7% 4061 02-19-18
129 Irregular Zero 28.4% 4073 02-19-18
130 Shadowthegreat 27.8% 4112 02-19-18
131 superjupi 27.7% 4116 02-19-18
132 SuperSonic101 27.7% 4117 02-19-18
133 Rolken 27.3% 4137 02-19-18
134 thewaytodawnnn 27.1% 4152 02-19-18
135 sonamyfan666 26.8% 4165 02-19-18
136 Hunters13 26.7% 4173 02-19-18
137 koinu93 26.7% 4174 02-19-18
138 iarebored 26.6% 4180 02-19-18
138 Spinballwizard 26.6% 4180 02-19-18
140 SaviourDC 26.4% 4187 02-19-18
141 SonicKnuckles 26.4% 4192 02-19-18
142 EngiNerd 25.4% 4247 02-19-18
143 adf 25.3% 4253 02-19-18
144 Megaman EXE565 24.6% 4294 02-19-18
145 The T 24.3% 4311 02-19-18
146 Sonic Singularity 23.7% 4342 02-19-18
147 Platformer 23.4% 4363 02-19-18
148 SeaWolf 23.0% 4381 02-19-18
148 timpkmn89 23.0% 4381 02-19-18
150 Pokemonmaster888 23.0% 4382 02-19-18
151 Swift Hobo 22.5% 4413 02-19-18
152 Sondow 22.3% 4423 02-19-18
153 Rickyman48 21.9% 4448 02-19-18
154 KitsuneYamaro 21.7% 4458 02-19-18
155 FoxBoy 21.4% 4473 02-19-18
156 TFEC Headshot 20.8% 4507 02-19-18
157 Kogen Player Banned 20.8% 4508 02-19-18
158 Jerzia 20.5% 4523 02-19-18
159 Starlight Sable 20.0% 4555 02-19-18
160 HyperSonic64 19.6% 4575 02-19-18
161 IsisDazs 19.4% 4589 02-19-18
162 Powerjohn25 19.2% 4599 02-19-18
163 crazy1993 19.2% 4602 02-19-18
164 andres430 19.1% 4606 02-19-18
165 SonicU260 18.1% 4661 02-19-18
166 MPit08 17.6% 4688 02-19-18
167 SonicAD 17.5% 4694 02-19-18
168 Swinkly 17.4% 4700 02-19-18
169 sonicd5 17.2% 4716 02-19-18
170 iSonicKid2K 17.0% 4722 02-19-18
171 dShadow 17.0% 4725 02-19-18
172 Cutiefox 16.5% 4756 02-19-18
173 Chawkk 16.4% 4760 02-19-18
174 Monkeh 16.1% 4776 02-19-18
175 Miles9999 16.0% 4781 02-19-18
176 Crispian 15.8% 4795 02-19-18
177 DaDude 15.3% 4821 02-19-18
178 Drflash55 15.2% 4825 02-19-18
179 Bass 15.0% 4838 02-19-18
180 Cruizer 14.8% 4850 02-19-18
181 Badlex727 14.8% 4851 02-19-18
182 Destroyer121121 14.7% 4853 02-19-18
183 superiorsonic 14.6% 4864 02-19-18
184 neaolas 14.5% 4868 02-19-18
185 zapp 14.4% 4875 02-19-18
186 Yish 14.3% 4878 02-19-18
187 UninspiredUsername 14.2% 4886 02-19-18
188 gamefreak1292 13.8% 4906 02-19-18
189 Cooljay 13.7% 4913 02-19-18
190 Sora_yx 13.3% 4936 02-19-18
191 Chaos_Overlord 12.8% 4962 02-19-18
192 GarnetPrincess 12.6% 4977 02-19-18
193 Valfore 12.4% 4988 02-19-18
194 soniccoloursunleashed 12.0% 5010 02-19-18
195 Dage4Aquatic 12.0% 5012 02-19-18
196 ShinigamiMachine 11.7% 5025 02-19-18
197 booo95 11.4% 5043 02-19-18
198 Sonicsuperstar1 11.3% 5051 02-19-18
199 SirTobbii 11.0% 5069 02-19-18
200 sonicspeed 10.9% 5071 02-19-18
201 FocusSight64 10.8% 5077 02-19-18
201 Werey 10.8% 5077 02-19-18
203 Jua Rever 10.7% 5086 02-19-18
204 Mo Player Banned 10.6% 5087 02-19-18
205 Venick409 9.6% 5144 02-19-18
206 Sithwarrior26 9.6% 5147 02-19-18
207 nman36 9.6% 5148 02-19-18
208 ingx24 9.1% 5176 02-19-18
209 CyberShadow 9.0% 5183 02-19-18
210 dekki1234 8.9% 5185 02-19-18
211 Fozer 8.7% 5199 02-19-18
212 Colomb_30 8.6% 5201 02-19-18
213 Egor305 8.5% 5209 02-19-18
214 Regano1000 8.3% 5220 02-19-18
215 douglas 8.1% 5234 02-19-18
216 1stKirbyever 8.0% 5235 02-19-18
217 nuckrieg 7.9% 5244 02-19-18
218 TimTH 7.8% 5249 02-19-18
219 Brian_pso 7.7% 5256 02-19-18
220 wheatrich 7.5% 5264 02-19-18
221 Th4tN1nj4Turtl3 7.4% 5270 02-19-18
221 Zip 7.4% 5270 02-19-18
223 TakaRikka 7.3% 5275 02-19-18
224 niscool 7.1% 5287 02-19-18
225 Mariosonic15 7.0% 5295 02-19-18
226 ieatatsonic 6.7% 5311 02-19-18
226 Triseena 6.7% 5311 02-19-18
228 MStitomix 6.7% 5313 02-19-18
229 HermitHelmet 6.6% 5317 02-19-18
230 Artie 6.3% 5333 02-19-18
231 Got4n 6.3% 5335 02-19-18
232 Cort_pso 6.3% 5337 02-19-18
233 BlankTH 6.0% 5351 02-19-18
234 Jose_15 6.0% 5353 02-19-18
235 SuperSonicfan9595 5.7% 5367 02-19-18
236 Richied 5.6% 5372 02-19-18
237 Ace747 5.5% 5378 02-19-18
238 HHNNBBHHN 5.4% 5386 02-19-18
239 Aiko 5.2% 5395 02-19-18
240 Paixii 5.2% 5396 02-19-18
241 slade23 5.0% 5408 02-19-18
242 BallzeH 5.0% 5411 02-19-18
242 Mankster101 5.0% 5411 02-19-18
244 ArcticDragon 4.8% 5418 02-19-18
244 FSSRandomvids 4.8% 5418 02-19-18
246 BecauseWarAnvil 4.8% 5420 02-19-18
247 PsyBorg 4.8% 5421 02-19-18
248 Jamixesa 4.7% 5424 02-19-18
249 Nickson98 4.6% 5431 02-19-18
250 Crydio 4.5% 5437 02-19-18
251 TheUltraBlur 4.4% 5441 02-19-18
252 MarewBFN 4.2% 5452 02-19-18
253 tal39h 4.2% 5454 02-19-18
254 ALundstrom10 4.2% 5456 02-19-18
254 stanski 4.2% 5456 02-19-18
256 knuckles_sonic8 3.9% 5469 02-19-18
257 p0ker 3.9% 5470 02-19-18
258 Blue Infamy 3.9% 5472 02-19-18
259 ErrortheCucco 3.7% 5483 02-19-18
260 Rikum22 3.6% 5486 02-19-18
261 sonic1001 3.5% 5494 02-19-18
261 TheChaosEmeraIds 3.5% 5494 02-19-18
263 AJSIV 3.4% 5501 02-19-18
263 syco1098 3.4% 5501 02-19-18
265 Sonic the Hedgehod16 3.3% 5504 02-19-18
266 ASINISTERTACO 3.2% 5510 02-19-18
267 sonicfan9 3.1% 5516 02-19-18
268 MK 3.0% 5524 02-19-18
269 themachoman202 2.9% 5526 02-19-18
270 Fivavoa 2.8% 5535 02-19-18
271 Mr. Jones 2.7% 5537 02-19-18
272 BlackArmsShadow 2.7% 5539 02-19-18
272 djmat 2.7% 5539 02-19-18
274 arcfx1985 2.7% 5540 02-19-18
275 ptorflaxendrosis 2.7% 5542 02-19-18
276 Sonique Hedgehog 2.6% 5544 02-19-18
277 FlandreScarlet9999vr 2.5% 5548 02-19-18
278 Zeldocto 2.5% 5550 02-19-18
279 KaM Mark MaK 2.5% 5552 02-19-18
280 BeeAwwb 2.4% 5554 02-19-18
281 ShadouZaHejjihoggu 2.3% 5560 02-19-18
282 darkstarblaze 2.2% 5565 02-19-18
283 Sarger001 2.2% 5568 02-19-18
284 Sonic The Star 2.2% 5570 02-19-18
285 darkersupershadic 2.1% 5571 02-19-18
286 SpiritDragon1995 2.1% 5572 02-19-18
287 Grady219 2.1% 5576 02-19-18
288 sonic29887 2.0% 5577 02-19-18
289 BioShadow 2.0% 5579 02-19-18
290 shadowblast63 Player Banned 1.9% 5584 02-19-18
291 Jawaah 1.9% 5585 02-19-18
292 Antek 1.8% 5589 02-19-18
293 Klaus 1.8% 5591 02-19-18
294 SkyBon 1.7% 5594 02-19-18
295 Shanekilz 1.4% 5613 02-19-18
296 isaihtb11 1.4% 5615 02-19-18
297 OhNoes! 1.3% 5618 02-19-18
298 zaktu40 1.3% 5619 02-19-18
299 gaara1234 1.2% 5622 02-19-18
300 S-MS32X-S 1.2% 5624 02-19-18
301 MastaToken 1.1% 5629 02-19-18
302 Mister_Slick 1.0% 5634 02-19-18
303 Sonic06Fan 1.0% 5637 02-19-18
304 Rush Hero 1.0% 5638 02-19-18
305 SonicMega167 0.9% 5643 02-19-18
306 oTaiIilLsS 0.8% 5645 02-19-18
307 gamed00d 0.8% 5646 02-19-18
307 SilverK 0.8% 5646 02-19-18
309 Heroes_Hater 0.7% 5654 02-19-18
310 Redd 0.7% 5656 02-19-18
311 Burningskull123 0.5% 5662 02-19-18
312 Sonicontherun 0.4% 5673 02-19-18
313 antiwwe 0.2% 5679 02-19-18
314 Iwannabelink 0.2% 5681 02-19-18
315 Genuine Hedgehog 0.2% 5682 02-19-18
315 SonataSpinDash 0.2% 5682 02-19-18
317 dragondragon18 0.1% 5686 02-19-18
318 SonicK100 0.1% 5688 02-19-18
319 Tyrouble 0.0% 5693 02-19-18
320 LancexExWx 0.0% 5696 02-19-18
320 neji_hyuuga 0.0% 5696 02-19-18
320 Over 0.0% 5696 02-19-18
320 sdj6707 Player Banned 0.0% 5696 02-19-18
320 Tran Sonic Fan Player Banned 0.0% 5696 02-19-18

This page is using the New Data Table System. [FUTURE]

Game ID: 3 | Category ID: 1
Hits: 2,450 | Hits This Month: 8 | DB Calls: 25 | Mem Usage: 5.47 MB | Time: 0.13s | Printable

The Sonic Center v3.9
Copyright 2003-2011 by The Sonic Center Team.